WAT3630 SBFL-SUMU
Flight info
| Callsign | WAT3630 |
|---|---|
| Flight time | N/A |
| Altitude | 36000 |
| Route | UGREV UN857 MIMOL UM792 TELAK |
| Aircraft | A21N/M-SDE3FGHIRWY/LB1 |
Departure
| Time | N/A |
|---|---|
| Airport | Hercílio Luz International Airport (SBFL) |
Arrival
| Time | 2026-04-26 01:38 |
|---|---|
| Airport | Carrasco General Cesáreo L. Berisso International Airport (SUMU) |
| Time | Latitude | Longitude | Altitude | Speed | Heading |
|---|---|---|---|---|---|
| 2026-04-26 01:14 | -32.95276 | -54.65287 | 35957 ft | 369 kts | 226° |
| 2026-04-26 01:14 | -32.97503 | -54.66882 | 35959 ft | 375 kts | 226° |
| 2026-04-26 01:14 | -33.02030 | -54.70116 | 35953 ft | 386 kts | 225° |
| 2026-04-26 01:15 | -33.06708 | -54.73454 | 35957 ft | 393 kts | 225° |
| 2026-04-26 01:15 | -33.11421 | -54.76812 | 35956 ft | 395 kts | 225° |
| 2026-04-26 01:16 | -33.16118 | -54.80166 | 35956 ft | 394 kts | 225° |
| 2026-04-26 01:16 | -33.20842 | -54.83545 | 35952 ft | 395 kts | 225° |
| 2026-04-26 01:17 | -33.25588 | -54.86947 | 35957 ft | 396 kts | 225° |
| 2026-04-26 01:17 | -33.30321 | -54.90342 | 35955 ft | 396 kts | 225° |
| 2026-04-26 01:18 | -33.35057 | -54.93748 | 35959 ft | 399 kts | 225° |
| 2026-04-26 01:18 | -33.39810 | -54.97170 | 35770 ft | 400 kts | 225° |
| 2026-04-26 01:19 | -33.42206 | -54.98899 | 35161 ft | 402 kts | 225° |
| 2026-04-26 01:19 | -33.44587 | -55.00616 | 34323 ft | 407 kts | 224° |
| 2026-04-26 01:19 | -33.47052 | -55.02399 | 33395 ft | 413 kts | 224° |
| 2026-04-26 01:19 | -33.49497 | -55.04169 | 32529 ft | 418 kts | 224° |
| 2026-04-26 01:20 | -33.51993 | -55.05973 | 31670 ft | 421 kts | 224° |
| 2026-04-26 01:20 | -33.54503 | -55.07789 | 30827 ft | 424 kts | 223° |
| 2026-04-26 01:20 | -33.57012 | -55.09600 | 30006 ft | 426 kts | 223° |
| 2026-04-26 01:20 | -33.59564 | -55.11446 | 29107 ft | 430 kts | 223° |
| 2026-04-26 01:21 | -33.62145 | -55.13321 | 28104 ft | 435 kts | 222° |
| 2026-04-26 01:21 | -33.64736 | -55.15205 | 27101 ft | 439 kts | 221° |
| 2026-04-26 01:21 | -33.67321 | -55.17083 | 26136 ft | 442 kts | 220° |
| 2026-04-26 01:21 | -33.69958 | -55.18996 | 25126 ft | 445 kts | 220° |
| 2026-04-26 01:22 | -33.72616 | -55.20923 | 24380 ft | 442 kts | 219° |
| 2026-04-26 01:22 | -33.75244 | -55.22821 | 23781 ft | 436 kts | 219° |
| 2026-04-26 01:22 | -33.77800 | -55.24671 | 23103 ft | 432 kts | 219° |
| 2026-04-26 01:22 | -33.80362 | -55.26533 | 22388 ft | 429 kts | 218° |
| 2026-04-26 01:23 | -33.82916 | -55.28391 | 21681 ft | 426 kts | 218° |
| 2026-04-26 01:23 | -33.85419 | -55.30215 | 20995 ft | 423 kts | 217° |
| 2026-04-26 01:23 | -33.87921 | -55.32040 | 20309 ft | 420 kts | 217° |
| 2026-04-26 01:23 | -33.90433 | -55.33874 | 19612 ft | 417 kts | 216° |
| 2026-04-26 01:24 | -33.92880 | -55.35661 | 18940 ft | 414 kts | 216° |
| 2026-04-26 01:24 | -33.95348 | -55.37465 | 18250 ft | 411 kts | 215° |
| 2026-04-26 01:24 | -33.97769 | -55.39233 | 17571 ft | 408 kts | 215° |
| 2026-04-26 01:24 | -34.00203 | -55.41009 | 16886 ft | 405 kts | 215° |
| 2026-04-26 01:25 | -34.02586 | -55.42751 | 16221 ft | 402 kts | 215° |
| 2026-04-26 01:25 | -34.04966 | -55.44492 | 15583 ft | 398 kts | 215° |
| 2026-04-26 01:25 | -34.07339 | -55.46231 | 14934 ft | 395 kts | 215° |
| 2026-04-26 01:25 | -34.09660 | -55.47934 | 14298 ft | 392 kts | 214° |
| 2026-04-26 01:26 | -34.11989 | -55.49643 | 13649 ft | 389 kts | 214° |
| 2026-04-26 01:26 | -34.14301 | -55.51342 | 13010 ft | 386 kts | 214° |
| 2026-04-26 01:26 | -34.16575 | -55.53014 | 12376 ft | 384 kts | 214° |
| 2026-04-26 01:26 | -34.18846 | -55.54686 | 11699 ft | 383 kts | 214° |
| 2026-04-26 01:27 | -34.21108 | -55.56350 | 11182 ft | 377 kts | 213° |
| 2026-04-26 01:27 | -34.23323 | -55.57979 | 10898 ft | 365 kts | 213° |
| 2026-04-26 01:27 | -34.25458 | -55.59548 | 10695 ft | 351 kts | 213° |
| 2026-04-26 01:27 | -34.27490 | -55.61044 | 10512 ft | 339 kts | 213° |
| 2026-04-26 01:28 | -34.29478 | -55.62510 | 10323 ft | 326 kts | 213° |
| 2026-04-26 01:28 | -34.31366 | -55.63904 | 10141 ft | 315 kts | 213° |
| 2026-04-26 01:28 | -34.33215 | -55.65243 | 9986 ft | 304 kts | 211° |
| 2026-04-26 01:28 | -34.35122 | -55.66250 | 9786 ft | 297 kts | 201° |
| 2026-04-26 01:29 | -34.37128 | -55.66922 | 9379 ft | 296 kts | 197° |
| 2026-04-26 01:29 | -34.39099 | -55.67477 | 9103 ft | 291 kts | 195° |
| 2026-04-26 01:29 | -34.41082 | -55.68025 | 8689 ft | 290 kts | 195° |
| 2026-04-26 01:29 | -34.43056 | -55.68573 | 8308 ft | 288 kts | 195° |
| 2026-04-26 01:30 | -34.44996 | -55.69116 | 7935 ft | 286 kts | 195° |
| 2026-04-26 01:30 | -34.46928 | -55.69658 | 7582 ft | 282 kts | 195° |
| 2026-04-26 01:30 | -34.48816 | -55.70192 | 7247 ft | 279 kts | 195° |
| 2026-04-26 01:30 | -34.50711 | -55.70729 | 6901 ft | 277 kts | 195° |
| 2026-04-26 01:31 | -34.52554 | -55.71251 | 6567 ft | 274 kts | 195° |
| 2026-04-26 01:31 | -34.54408 | -55.71777 | 6234 ft | 271 kts | 195° |
| 2026-04-26 01:31 | -34.56249 | -55.72301 | 5892 ft | 269 kts | 195° |
| 2026-04-26 01:31 | -34.58049 | -55.72812 | 5560 ft | 267 kts | 195° |
| 2026-04-26 01:32 | -34.59857 | -55.73327 | 5226 ft | 265 kts | 195° |
| 2026-04-26 01:32 | -34.61634 | -55.73832 | 4902 ft | 263 kts | 195° |
| 2026-04-26 01:32 | -34.63416 | -55.74341 | 4578 ft | 261 kts | 195° |
| 2026-04-26 01:32 | -34.65211 | -55.74854 | 4244 ft | 260 kts | 195° |
| 2026-04-26 01:33 | -34.66841 | -55.75706 | 3896 ft | 257 kts | 218° |
| 2026-04-26 01:33 | -34.68122 | -55.77222 | 3563 ft | 254 kts | 232° |
| 2026-04-26 01:33 | -34.69195 | -55.78894 | 3278 ft | 251 kts | 235° |
| 2026-04-26 01:33 | -34.70198 | -55.80563 | 3241 ft | 236 kts | 236° |
| 2026-04-26 01:34 | -34.71153 | -55.82165 | 3229 ft | 235 kts | 236° |
| 2026-04-26 01:34 | -34.72113 | -55.83767 | 3188 ft | 235 kts | 236° |
| 2026-04-26 01:34 | -34.73079 | -55.85367 | 3099 ft | 233 kts | 235° |
| 2026-04-26 01:34 | -34.74025 | -55.86927 | 2926 ft | 226 kts | 235° |
| 2026-04-26 01:35 | -34.74952 | -55.88453 | 2630 ft | 225 kts | 235° |
| 2026-04-26 01:35 | -34.75869 | -55.89965 | 2368 ft | 218 kts | 235° |
| 2026-04-26 01:35 | -34.76748 | -55.91412 | 2140 ft | 209 kts | 235° |
| 2026-04-26 01:35 | -34.77603 | -55.92820 | 1819 ft | 200 kts | 235° |
| 2026-04-26 01:36 | -34.78400 | -55.94132 | 1555 ft | 184 kts | 235° |
| 2026-04-26 01:36 | -34.79134 | -55.95341 | 1296 ft | 171 kts | 235° |
| 2026-04-26 01:36 | -34.79815 | -55.96463 | 1059 ft | 159 kts | 235° |
| 2026-04-26 01:37 | -34.81074 | -55.98537 | 678 ft | 152 kts | 234° |
| 2026-04-26 01:37 | -34.81709 | -55.99580 | 481 ft | 152 kts | 234° |
| 2026-04-26 01:37 | -34.82336 | -56.00613 | 282 ft | 151 kts | 234° |
| 2026-04-26 01:37 | -34.82966 | -56.01648 | 100 ft | 150 kts | 234° |
| 2026-04-26 01:38 | -34.83516 | -56.02548 | 76 ft | 97 kts | 233° |
| 2026-04-26 01:38 | -34.83776 | -56.02848 | 66 ft | 15 kts | 181° |
| 2026-04-26 01:38 | -34.83802 | -56.02848 | 65 ft | 3 kts | 180° |
| 2026-04-26 01:38 | -34.83840 | -56.02848 | 64 ft | 7 kts | 180° |
| 2026-04-26 01:39 | -34.83896 | -56.02836 | 63 ft | 9 kts | 161° |
| 2026-04-26 01:39 | -34.83964 | -56.02797 | 62 ft | 11 kts | 146° |
| 2026-04-26 01:39 | -34.83972 | -56.02709 | 62 ft | 11 kts | 70° |
| 2026-04-26 01:39 | -34.83940 | -56.02628 | 63 ft | 9 kts | 37° |
| 2026-04-26 01:40 | -34.83891 | -56.02614 | 66 ft | 0 kts | 357° |